Time;durP1;ratioP1;P1;durP2;ratioP2;P2;SDS_P1;SDS_P2;PMS_P1;PMS_P2;Temp;Humidity;BMP_temperature;BMP_pressure;BME280_temperature;BME280_humidity;BME280_pressure;Samples;Min_cycle;Max_cycle;Signal;HPM_P1;HPM_P2
2023/12/20 00:00:37;;;;;;;;;;;;;;;20.02;49.14;100446.41;2096462;28;6005;-66
2023/12/20 00:01:38;;;;;;;;;;;;;;;20.01;49.27;100447.81;2100927;28;2025;-66
2023/12/20 00:02:40;;;;;;;;;;;;;;;20.02;49.17;100452.16;2099980;28;2261;-66
2023/12/20 00:03:42;;;;;;;;;;;;;;;20.01;49.30;100451.41;2101159;28;2005;-66
2023/12/20 00:04:43;;;;;;;;;;;;;;;20.01;49.28;100457.16;2100212;28;1917;-66
2023/12/20 00:05:45;;;;;;;;;;;;;;;20.01;49.18;100451.41;2100576;28;2342;-66
2023/12/20 00:06:46;;;;;;;;;;;;;;;20.01;49.21;100450.69;2099536;28;1898;-66
2023/12/20 00:07:48;;;;;;;;;;;;;;;20.00;49.19;100443.47;2103253;28;1808;-66
2023/12/20 00:08:50;;;;;;;;;;;;;;;20.00;49.12;100438.44;2100735;28;1651;-66
2023/12/20 00:09:51;;;;;;;;;;;;;;;19.99;49.04;100445.59;2097727;28;2090;-66
2023/12/20 00:10:53;;;;;;;;;;;;;;;20.00;49.09;100441.31;2099427;28;1578;-66
2023/12/20 00:11:54;;;;;;;;;;;;;;;20.00;49.16;100444.19;2097976;28;1955;-66
2023/12/20 00:12:56;;;;;;;;;;;;;;;19.99;49.33;100431.22;2097744;28;1949;-66
2023/12/20 00:13:57;;;;;;;;;;;;;;;19.99;49.31;100431.22;2096084;28;2049;-66
2023/12/20 00:14:58;;;;;;;;;;;;;;;19.98;49.15;100432.63;2099684;28;1939;-66
2023/12/20 00:16:00;;;;;;;;;;;;;;;19.99;49.28;100430.47;2098799;28;2162;-66
2023/12/20 00:17:01;;;;;;;;;;;;;;;19.99;49.20;100427.59;2097815;28;1930;-66
2023/12/20 00:18:03;;;;;;;;;;;;;;;19.99;49.08;100433.34;2103792;28;1870;-66
2023/12/20 00:19:04;;;;;;;;;;;;;;;19.98;49.05;100423.25;2097876;28;1566;-66
2023/12/20 00:20:06;;;;;;;;;;;;;;;19.98;49.05;100435.50;2098986;28;2243;-66
2023/12/20 00:21:08;;;;;;;;;;;;;;;19.98;49.20;100434.75;2100446;28;1914;-66
2023/12/20 00:22:09;;;;;;;;;;;;;;;19.98;49.29;100426.88;2102686;28;1526;-66
2023/12/20 00:23:10;;;;;;;;;;;;;;;19.96;49.08;100423.91;2099044;28;1735;-66
2023/12/20 00:24:12;;;;;;;;;;;;;;;19.96;49.26;100432.53;2100021;28;2031;-66
2023/12/20 00:25:13;;;;;;;;;;;;;;;19.97;49.12;100419.63;2101334;28;1950;-66
2023/12/20 00:26:15;;;;;;;;;;;;;;;19.98;49.05;100426.88;2098969;28;2000;-66
2023/12/20 00:27:16;;;;;;;;;;;;;;;19.97;49.06;100430.41;2100049;28;2267;-66
2023/12/20 00:28:18;;;;;;;;;;;;;;;19.97;49.04;100422.50;2103806;28;1655;-66
2023/12/20 00:29:19;;;;;;;;;;;;;;;19.96;49.12;100421.03;2100027;28;1503;-66
2023/12/20 00:30:20;;;;;;;;;;;;;;;19.96;48.98;100420.31;2096194;28;6239;-66
2023/12/20 00:31:22;;;;;;;;;;;;;;;19.96;49.12;100415.28;2098630;28;2034;-66
2023/12/20 00:32:23;;;;;;;;;;;;;;;19.95;49.12;100413.81;2102574;28;1882;-66
2023/12/20 00:33:25;;;;;;;;;;;;;;;19.95;49.08;100415.94;2101409;28;1953;-66
2023/12/20 00:34:27;;;;;;;;;;;;;;;19.95;48.96;100413.81;2100465;28;1816;-66
2023/12/20 00:35:28;;;;;;;;;;;;;;;19.94;48.98;100418.06;2096483;28;1879;-66
2023/12/20 00:36:30;;;;;;;;;;;;;;;19.95;49.11;100410.19;2101025;28;1633;-66
2023/12/20 00:37:31;;;;;;;;;;;;;;;19.95;48.92;100413.81;2102299;28;2000;-66
2023/12/20 00:38:33;;;;;;;;;;;;;;;19.94;49.06;100418.06;2100199;28;1633;-66
2023/12/20 00:39:34;;;;;;;;;;;;;;;19.94;48.97;100411.59;2098122;28;1982;-66
2023/12/20 00:40:35;;;;;;;;;;;;;;;19.94;48.96;100414.47;2098455;28;2056;-66
2023/12/20 00:41:37;;;;;;;;;;;;;;;19.95;48.97;100424.56;2098861;28;1973;-66
2023/12/20 00:42:38;;;;;;;;;;;;;;;19.93;48.94;100416.63;2097294;28;1984;-66
2023/12/20 00:43:40;;;;;;;;;;;;;;;19.93;48.89;100415.84;2099714;28;2151;-66
2023/12/20 00:44:41;;;;;;;;;;;;;;;19.93;48.99;100416.63;2098610;28;1925;-66
2023/12/20 00:45:43;;;;;;;;;;;;;;;19.92;49.05;100415.13;2100747;28;1907;-66
2023/12/20 00:46:44;;;;;;;;;;;;;;;19.93;49.00;100415.84;2097518;28;1961;-66
2023/12/20 00:47:45;;;;;;;;;;;;;;;19.92;48.86;100420.88;2099643;28;1601;-66
2023/12/20 00:48:47;;;;;;;;;;;;;;;19.92;48.92;100409.38;2100541;28;1573;-66
2023/12/20 00:49:49;;;;;;;;;;;;;;;19.93;49.02;100418.72;2100393;28;1597;-66
2023/12/20 00:50:50;;;;;;;;;;;;;;;19.92;48.91;100415.13;2097284;28;1985;-66
2023/12/20 00:51:52;;;;;;;;;;;;;;;19.92;48.88;100411.50;2100210;28;1948;-66
2023/12/20 00:52:54;;;;;;;;;;;;;;;19.91;48.99;100402.16;2098053;28;2016;-66
2023/12/20 00:53:56;;;;;;;;;;;;;;;19.91;49.03;100410.78;2100292;28;1848;-66
2023/12/20 00:54:57;;;;;;;;;;;;;;;19.91;49.08;100407.91;2102044;28;1957;-66
2023/12/20 00:55:58;;;;;;;;;;;;;;;19.91;48.94;100402.16;2099811;28;1648;-66
2023/12/20 00:57:00;;;;;;;;;;;;;;;19.92;49.03;100415.13;2102474;28;1916;-66
2023/12/20 00:58:01;;;;;;;;;;;;;;;19.91;48.88;100413.66;2097684;28;1965;-66
2023/12/20 00:59:03;;;;;;;;;;;;;;;19.91;48.88;100415.78;2100357;28;1784;-66
2023/12/20 01:00:04;;;;;;;;;;;;;;;19.91;48.73;100419.41;2099875;28;2003;-66
2023/12/20 01:01:06;;;;;;;;;;;;;;;19.92;48.77;100414.38;2098732;28;5989;-66
2023/12/20 01:02:08;;;;;;;;;;;;;;;19.92;48.92;100417.25;2099146;28;2012;-66
2023/12/20 01:03:10;;;;;;;;;;;;;;;19.91;48.85;100422.28;2100502;28;1661;-66
2023/12/20 01:04:11;;;;;;;;;;;;;;;19.91;48.85;100412.91;2102326;28;2072;-66
2023/12/20 01:05:13;;;;;;;;;;;;;;;19.90;48.88;100415.03;2101628;28;1957;-66
2023/12/20 01:06:15;;;;;;;;;;;;;;;19.91;48.85;100419.41;2099198;28;2017;-66
2023/12/20 01:07:17;;;;;;;;;;;;;;;19.90;48.78;100417.19;2099665;28;1633;-66
2023/12/20 01:08:19;;;;;;;;;;;;;;;19.89;48.86;100410.69;2101164;28;1658;-66
2023/12/20 01:09:23;;;;;;;;;;;;;;;19.90;48.86;100420.78;2103031;28;1938;-66
2023/12/20 01:10:27;;;;;;;;;;;;;;;19.89;48.85;100416.44;2099495;28;2206;-66
2023/12/20 01:11:29;;;;;;;;;;;;;;;19.90;48.88;100417.91;2097765;28;2116;-72
2023/12/20 01:12:30;;;;;;;;;;;;;;;19.90;48.85;100412.16;2098498;28;1961;-69
2023/12/20 01:13:32;;;;;;;;;;;;;;;19.89;48.92;100416.44;2097862;28;1768;-66
2023/12/20 01:14:33;;;;;;;;;;;;;;;19.90;48.85;100408.56;2103015;28;2067;-65
2023/12/20 01:15:35;;;;;;;;;;;;;;;19.89;48.88;100410.69;2100879;28;1979;-72
2023/12/20 01:16:36;;;;;;;;;;;;;;;19.88;48.90;100412.84;2102125;28;1640;-72
2023/12/20 01:17:38;;;;;;;;;;;;;;;19.87;48.75;100414.22;2103784;28;1520;-72
2023/12/20 01:18:39;;;;;;;;;;;;;;;19.87;48.83;100417.09;2103706;28;1609;-71
2023/12/20 01:19:41;;;;;;;;;;;;;;;19.88;48.81;100420.69;2097286;28;2026;-72
2023/12/20 01:20:43;;;;;;;;;;;;;;;19.88;48.81;100426.44;2100167;28;1983;-72
2023/12/20 01:21:44;;;;;;;;;;;;;;;19.88;48.69;100426.44;2102371;28;1915;-71
2023/12/20 01:22:45;;;;;;;;;;;;;;;19.87;48.81;100425.72;2101200;28;1839;-72
2023/12/20 01:23:47;;;;;;;;;;;;;;;19.88;48.74;100426.44;2101138;28;1795;-72
2023/12/20 01:24:48;;;;;;;;;;;;;;;19.87;48.74;100419.22;2098093;28;1597;-72
2023/12/20 01:25:50;;;;;;;;;;;;;;;19.87;48.88;100428.59;2098662;28;2033;-72
2023/12/20 01:26:51;;;;;;;;;;;;;;;19.87;48.65;100430.72;2100434;28;2130;-72
2023/12/20 01:27:53;;;;;;;;;;;;;;;19.87;48.73;100424.97;2099105;28;1990;-72
2023/12/20 01:28:54;;;;;;;;;;;;;;;19.87;48.84;100431.44;2101954;28;2087;-72
2023/12/20 01:29:55;;;;;;;;;;;;;;;19.87;48.86;100424.97;2098545;28;2077;-72
2023/12/20 01:30:57;;;;;;;;;;;;;;;19.86;48.72;100423.50;2098471;28;6554;-71
2023/12/20 01:31:59;;;;;;;;;;;;;;;19.86;48.76;100423.50;2101198;28;2112;-72
2023/12/20 01:33:00;;;;;;;;;;;;;;;19.86;48.78;100429.25;2101582;28;1757;-72
2023/12/20 01:34:01;;;;;;;;;;;;;;;19.85;48.89;100422.00;2100607;28;1807;-71
2023/12/20 01:35:03;;;;;;;;;;;;;;;19.85;48.82;100425.63;2101152;28;1875;-71
2023/12/20 01:36:05;;;;;;;;;;;;;;;19.85;48.88;100427.75;2097187;28;1984;-72
2023/12/20 01:37:06;;;;;;;;;;;;;;;19.86;48.77;100432.13;2101491;28;2039;-72
2023/12/20 01:38:08;;;;;;;;;;;;;;;19.86;48.77;100423.50;2098097;28;2037;-72
2023/12/20 01:39:09;;;;;;;;;;;;;;;19.84;48.66;100426.28;2102618;28;1950;-72
2023/12/20 01:40:25;;;;;;;;;;;;;;;19.85;48.72;100419.13;2101865;28;2057;-73
2023/12/20 01:41:26;;;;;;;;;;;;;;;19.84;48.74;100414.81;2100309;28;1951;-72
2023/12/20 01:42:29;;;;;;;;;;;;;;;19.83;48.65;100413.31;2098406;28;1776;-72
2023/12/20 01:43:30;;;;;;;;;;;;;;;19.84;48.73;100406.19;2102069;28;1611;-72
2023/12/20 01:44:41;;;;;;;;;;;;;;;19.84;48.75;100421.28;2102256;28;1920;-72
2023/12/20 01:45:42;;;;;;;;;;;;;;;19.84;48.82;100409.06;2103034;28;2309;-73
2023/12/20 01:46:44;;;;;;;;;;;;;;;19.83;48.76;100419.78;2102586;28;1946;-72
2023/12/20 01:47:45;;;;;;;;;;;;;;;19.84;48.62;100409.06;2098170;28;2322;-72
2023/12/20 01:48:47;;;;;;;;;;;;;;;19.83;48.68;100413.31;2100228;28;2151;-72
2023/12/20 01:49:49;;;;;;;;;;;;;;;19.83;48.62;100413.31;2101057;28;1935;-72
2023/12/20 01:50:50;;;;;;;;;;;;;;;19.83;48.70;100408.28;2091017;28;1777;-72
2023/12/20 01:51:52;;;;;;;;;;;;;;;19.82;48.76;100406.09;2092175;28;1521;-72
2023/12/20 01:52:55;;;;;;;;;;;;;;;19.82;48.72;100406.81;2104066;28;2346;-72
2023/12/20 01:53:57;;;;;;;;;;;;;;;19.82;48.63;100418.31;2101337;28;1530;-72
2023/12/20 01:55:02;;;;;;;;;;;;;;;19.83;48.70;100419.06;2103453;28;1920;-73
2023/12/20 01:56:04;;;;;;;;;;;;;;;19.81;48.77;100411.09;2098117;28;2042;-72
2023/12/20 01:57:06;;;;;;;;;;;;;;;19.83;48.74;100419.06;2098062;28;2032;-72
2023/12/20 01:58:08;;;;;;;;;;;;;;;19.82;48.72;100412.56;2098884;28;1834;-72
2023/12/20 01:59:09;;;;;;;;;;;;;;;19.82;48.60;100421.19;2093951;28;1976;-71
2023/12/20 02:00:11;;;;;;;;;;;;;;;19.82;48.65;100417.59;2091056;28;6054;-72
2023/12/20 02:01:13;;;;;;;;;;;;;;;19.82;48.67;100414.72;2102652;28;1986;-72
2023/12/20 02:02:14;;;;;;;;;;;;;;;19.82;48.57;100406.09;2102821;28;2002;-72
2023/12/20 02:03:16;;;;;;;;;;;;;;;19.81;48.71;100404.59;2100353;28;1991;-72
2023/12/20 02:04:17;;;;;;;;;;;;;;;19.81;48.72;100401.72;2101529;28;1778;-72
2023/12/20 02:05:19;;;;;;;;;;;;;;;19.81;48.58;100401.72;2098214;28;1962;-72
2023/12/20 02:06:21;;;;;;;;;;;;;;;19.81;48.67;100401.72;2098291;28;2002;-72
2023/12/20 02:07:22;;;;;;;;;;;;;;;19.80;48.65;100394.50;2099828;28;1947;-72
2023/12/20 02:08:24;;;;;;;;;;;;;;;19.81;48.60;100398.84;2098604;28;1916;-72
2023/12/20 02:09:25;;;;;;;;;;;;;;;19.80;48.62;100397.38;2100923;28;2252;-72
2023/12/20 02:10:27;;;;;;;;;;;;;;;19.80;48.73;100391.66;2101486;28;1931;-72
2023/12/20 02:11:28;;;;;;;;;;;;;;;19.79;48.71;100401.63;2103487;28;1553;-72
2023/12/20 02:12:30;;;;;;;;;;;;;;;19.79;48.59;100405.28;2099256;28;1933;-72
2023/12/20 02:13:31;;;;;;;;;;;;;;;19.79;48.56;100398.78;2099767;28;1731;-72
2023/12/20 02:14:33;;;;;;;;;;;;;;;19.78;48.48;100400.91;2102908;28;1776;-72
2023/12/20 02:15:36;;;;;;;;;;;;;;;19.78;48.66;100412.41;2100755;28;1846;-72
2023/12/20 02:16:38;;;;;;;;;;;;;;;19.78;48.62;100417.41;2100782;28;1884;-73
2023/12/20 02:17:39;;;;;;;;;;;;;;;19.78;48.68;100403.78;2096162;28;2046;-73
2023/12/20 02:18:42;;;;;;;;;;;;;;;19.78;48.64;100405.91;2098529;28;1973;-72
2023/12/20 02:19:43;;;;;;;;;;;;;;;19.78;48.45;100400.19;2100383;28;1805;-73
2023/12/20 02:20:45;;;;;;;;;;;;;;;19.78;48.58;100405.91;2099015;28;1942;-73
2023/12/20 02:21:46;;;;;;;;;;;;;;;19.77;48.58;100399.44;2102365;28;1577;-72
2023/12/20 02:22:48;;;;;;;;;;;;;;;19.78;48.53;100394.44;2096798;28;2002;-71
2023/12/20 02:23:49;;;;;;;;;;;;;;;19.78;48.62;100388.69;2101457;28;2024;-73
2023/12/20 02:24:50;;;;;;;;;;;;;;;19.77;48.50;100393.69;2102106;28;1657;-73
2023/12/20 02:25:52;;;;;;;;;;;;;;;19.77;48.59;100395.81;2099469;28;2083;-72
2023/12/20 02:26:53;;;;;;;;;;;;;;;19.76;48.48;100397.22;2101777;28;1655;-72
2023/12/20 02:27:55;;;;;;;;;;;;;;;19.77;48.48;100395.81;2099952;28;1801;-73
2023/12/20 02:28:56;;;;;;;;;;;;;;;19.76;48.45;100397.22;2096626;28;1690;-72
2023/12/20 02:29:57;;;;;;;;;;;;;;;19.76;48.51;100391.47;2095620;28;2011;-73
2023/12/20 02:30:59;;;;;;;;;;;;;;;19.76;48.39;100400.09;2096903;28;6580;-72
2023/12/20 02:32:01;;;;;;;;;;;;;;;19.75;48.54;100407.97;2101636;28;2208;-72
2023/12/20 02:33:02;;;;;;;;;;;;;;;19.75;48.51;100407.25;2097287;28;1934;-72
2023/12/20 02:34:03;;;;;;;;;;;;;;;19.75;48.53;100407.25;2101941;28;1961;-72
2023/12/20 02:35:05;;;;;;;;;;;;;;;19.74;48.56;100403.59;2102971;28;1944;-72
2023/12/20 02:36:06;;;;;;;;;;;;;;;19.74;48.52;100400.72;2097568;28;1958;-72
2023/12/20 02:37:08;;;;;;;;;;;;;;;19.75;48.52;100395.75;2098361;28;2118;-72
2023/12/20 02:38:10;;;;;;;;;;;;;;;19.74;48.37;100400.00;2100520;28;1965;-72
2023/12/20 02:39:11;;;;;;;;;;;;;;;19.75;48.35;100398.63;2101963;28;2047;-72
2023/12/20 02:40:13;;;;;;;;;;;;;;;19.74;48.38;100397.13;2102363;28;1602;-72
2023/12/20 02:41:16;;;;;;;;;;;;;;;19.74;48.34;100391.38;2098147;28;1918;-72
2023/12/20 02:42:18;;;;;;;;;;;;;;;19.73;48.49;100396.41;2098313;28;2051;-72
2023/12/20 02:43:19;;;;;;;;;;;;;;;19.73;48.31;100393.53;2102513;28;1606;-72
2023/12/20 02:44:21;;;;;;;;;;;;;;;19.74;48.52;100400.00;2100902;28;1665;-72
2023/12/20 02:45:22;;;;;;;;;;;;;;;19.73;48.42;100405.00;2099705;28;1998;-73
2023/12/20 02:46:23;;;;;;;;;;;;;;;19.73;48.42;100404.28;2097118;28;1962;-72
2023/12/20 02:47:25;;;;;;;;;;;;;;;19.74;48.40;100405.75;2100436;28;1795;-73
2023/12/20 02:48:26;;;;;;;;;;;;;;;19.73;48.31;100392.78;2100719;28;1976;-71
2023/12/20 02:49:28;;;;;;;;;;;;;;;19.73;48.39;100392.78;2100638;28;2088;-72
2023/12/20 02:50:29;;;;;;;;;;;;;;;19.73;48.44;100404.28;2101916;28;1937;-71
2023/12/20 02:51:31;;;;;;;;;;;;;;;19.73;48.30;100392.78;2099445;28;2038;-73
2023/12/20 02:52:32;;;;;;;;;;;;;;;19.72;48.20;100408.53;2098721;28;2292;-71
2023/12/20 02:53:34;;;;;;;;;;;;;;;19.71;48.40;100395.56;2098160;28;2076;-71
2023/12/20 02:54:35;;;;;;;;;;;;;;;19.72;48.42;100411.41;2101419;28;2094;-71
2023/12/20 02:55:36;;;;;;;;;;;;;;;19.72;48.29;100397.03;2099059;28;2069;-72
2023/12/20 02:56:38;;;;;;;;;;;;;;;19.72;48.29;100399.91;2097851;28;1941;-70
2023/12/20 02:57:41;;;;;;;;;;;;;;;19.71;48.26;100395.56;2097454;28;1976;-71
2023/12/20 02:58:43;;;;;;;;;;;;;;;19.71;48.20;100398.44;2099320;28;2141;-72
2023/12/20 02:59:45;;;;;;;;;;;;;;;19.70;48.35;100391.97;2096711;28;2016;-71
2023/12/20 03:00:46;;;;;;;;;;;;;;;19.70;48.43;100405.56;2098266;28;6233;-71
2023/12/20 03:01:48;;;;;;;;;;;;;;;19.70;48.37;100402.69;2100364;28;2077;-72
2023/12/20 03:02:49;;;;;;;;;;;;;;;19.70;48.26;100405.56;2099486;28;1598;-71
2023/12/20 03:03:51;;;;;;;;;;;;;;;19.70;48.32;100399.81;2100160;28;1816;-71
2023/12/20 03:04:52;;;;;;;;;;;;;;;19.71;48.36;100407.06;2102747;28;1467;-72
2023/12/20 03:05:54;;;;;;;;;;;;;;;19.70;48.19;100399.81;2098248;28;1968;-71
2023/12/20 03:06:55;;;;;;;;;;;;;;;19.70;48.19;100405.56;2098714;28;1622;-71
2023/12/20 03:07:56;;;;;;;;;;;;;;;19.70;48.28;100411.31;2100016;28;1844;-72
2023/12/20 03:08:58;;;;;;;;;;;;;;;19.70;48.18;100411.31;2098583;28;2057;-71
2023/12/20 03:09:59;;;;;;;;;;;;;;;19.69;48.21;100409.84;2099848;28;2054;-72
2023/12/20 03:11:19;;;;;;;;;;;;;;;19.70;48.11;100411.31;2100901;28;1698;-71
2023/12/20 03:12:21;;;;;;;;;;;;;;;19.70;48.26;100417.06;2102000;28;1586;-70
2023/12/20 03:13:22;;;;;;;;;;;;;;;19.69;48.14;100415.59;2102262;28;1557;-71
2023/12/20 03:14:24;;;;;;;;;;;;;;;19.69;48.14;100409.84;2101200;28;1881;-72
2023/12/20 03:15:25;;;;;;;;;;;;;;;19.69;48.33;100412.72;2099709;28;1773;-72
2023/12/20 03:16:27;;;;;;;;;;;;;;;19.68;48.15;100414.84;2102331;28;2386;-71
2023/12/20 03:17:28;;;;;;;;;;;;;;;19.69;48.28;100427.09;2096888;28;1934;-71
2023/12/20 03:18:29;;;;;;;;;;;;;;;19.68;48.24;100426.31;2099262;28;1970;-72
2023/12/20 03:19:31;;;;;;;;;;;;;;;19.67;48.11;100419.81;2101125;28;2279;-71
2023/12/20 03:20:35;;;;;;;;;;;;;;;19.68;48.22;100420.56;2097600;28;2032;-71
2023/12/20 03:21:37;;;;;;;;;;;;;;;19.67;48.17;100425.56;2101368;28;1921;-72
2023/12/20 03:22:38;;;;;;;;;;;;;;;19.68;48.18;100414.84;2101740;28;1796;-71
2023/12/20 03:23:40;;;;;;;;;;;;;;;19.67;48.16;100411.19;2101065;28;1573;-71
2023/12/20 03:24:41;;;;;;;;;;;;;;;19.67;48.11;100419.09;2101400;28;1808;-71
2023/12/20 03:25:42;;;;;;;;;;;;;;;19.67;48.15;100422.69;2098178;28;1974;-71
2023/12/20 03:26:44;;;;;;;;;;;;;;;19.67;48.23;100419.09;2099189;28;1886;-71
2023/12/20 03:27:45;;;;;;;;;;;;;;;19.67;48.16;100424.81;2096443;28;2035;-71
2023/12/20 03:28:48;;;;;;;;;;;;;;;19.67;48.03;100419.09;2097176;28;1901;-71
2023/12/20 03:29:50;;;;;;;;;;;;;;;19.66;48.17;100424.09;2099815;28;1941;-71
2023/12/20 03:30:51;;;;;;;;;;;;;;;19.66;48.14;100415.47;2099658;28;5947;-71
2023/12/20 03:31:53;;;;;;;;;;;;;;;19.65;48.03;100416.88;2104056;28;1693;-71
2023/12/20 03:32:54;;;;;;;;;;;;;;;19.65;48.18;100416.88;2100801;28;1860;-71
2023/12/20 03:33:55;;;;;;;;;;;;;;;19.66;48.06;100414.75;2102917;28;1841;-72
2023/12/20 03:34:57;;;;;;;;;;;;;;;19.65;48.17;100419.75;2097487;28;1986;-71
2023/12/20 03:35:59;;;;;;;;;;;;;;;19.65;48.01;100419.75;2100314;28;1910;-71
2023/12/20 03:37:00;;;;;;;;;;;;;;;19.65;48.19;100434.13;2099221;28;1961;-71
2023/12/20 03:38:02;;;;;;;;;;;;;;;19.65;48.24;100425.50;2097193;28;1824;-70
2023/12/20 03:39:03;;;;;;;;;;;;;;;19.65;48.09;100425.50;2096890;28;2045;-72
2023/12/20 03:40:05;;;;;;;;;;;;;;;19.65;48.05;100422.63;2097983;28;1545;-71
2023/12/20 03:41:06;;;;;;;;;;;;;;;19.64;48.02;100421.13;2097005;28;2134;-71
2023/12/20 03:42:08;;;;;;;;;;;;;;;19.65;48.07;100411.13;2103392;28;1918;-71
2023/12/20 03:43:09;;;;;;;;;;;;;;;19.65;48.10;100411.13;2100222;28;2151;-72
2023/12/20 03:44:11;;;;;;;;;;;;;;;19.66;48.13;100406.84;2099290;28;1774;-72
2023/12/20 03:45:12;;;;;;;;;;;;;;;19.66;48.05;100411.88;2098299;28;1973;-72
2023/12/20 03:46:13;;;;;;;;;;;;;;;19.67;48.13;100401.84;2098960;28;2331;-72
2023/12/20 03:47:15;;;;;;;;;;;;;;;19.67;48.29;100402.59;2102332;28;1595;-72
2023/12/20 03:48:16;;;;;;;;;;;;;;;19.68;48.21;100409.09;2098306;28;1953;-71
2023/12/20 03:49:18;;;;;;;;;;;;;;;19.69;48.26;100412.72;2098654;28;2091;-71
2023/12/20 03:50:19;;;;;;;;;;;;;;;19.71;48.19;100412.81;2100383;28;1974;-72
2023/12/20 03:51:21;;;;;;;;;;;;;;;19.71;48.09;100401.31;2099044;28;1594;-72
2023/12/20 03:52:22;;;;;;;;;;;;;;;19.72;48.11;100403.53;2098819;28;2059;-71
2023/12/20 03:53:24;;;;;;;;;;;;;;;19.73;48.22;100410.03;2095704;28;1979;-71
2023/12/20 03:54:25;;;;;;;;;;;;;;;19.74;48.11;100405.75;2097650;28;1984;-71
2023/12/20 03:55:27;;;;;;;;;;;;;;;19.74;48.30;100397.13;2101604;28;1612;-72
2023/12/20 03:56:28;;;;;;;;;;;;;;;19.74;48.22;100397.84;2101191;28;1547;-72
2023/12/20 03:57:29;;;;;;;;;;;;;;;19.74;48.43;100395.00;2103146;28;1523;-72
2023/12/20 03:58:31;;;;;;;;;;;;;;;19.76;48.39;100402.97;2102413;28;1559;-71
2023/12/20 03:59:38;;;;;;;;;;;;;;;19.77;48.45;100398.69;2098800;28;1964;-72
2023/12/20 04:00:40;;;;;;;;;;;;;;;19.77;48.27;100401.56;2097292;28;6061;-72
2023/12/20 04:01:47;;;;;;;;;;;;;;;19.77;48.44;100398.69;2102414;28;1913;-72
2023/12/20 04:02:48;;;;;;;;;;;;;;;19.77;48.48;100390.06;2099915;28;2034;-72
2023/12/20 04:03:50;;;;;;;;;;;;;;;19.76;48.38;100386.47;2097392;28;2014;-71
2023/12/20 04:04:53;;;;;;;;;;;;;;;19.76;48.57;100386.47;2099065;28;1937;-70
2023/12/20 04:05:54;;;;;;;;;;;;;;;19.76;48.45;100388.59;2098380;28;1582;-72
2023/12/20 04:06:55;;;;;;;;;;;;;;;19.77;48.36;100392.94;2098689;28;1808;-72
2023/12/20 04:07:57;;;;;;;;;;;;;;;19.76;48.48;100386.47;2103328;28;1511;-71
2023/12/20 04:08:59;;;;;;;;;;;;;;;19.76;48.56;100385.72;2096735;28;1912;-72
2023/12/20 04:10:00;;;;;;;;;;;;;;;19.77;48.46;100387.19;2098911;28;1562;-72
2023/12/20 04:11:02;;;;;;;;;;;;;;;19.76;48.33;100386.47;2099090;28;1907;-72
2023/12/20 04:12:05;;;;;;;;;;;;;;;19.76;48.48;100385.72;2099030;28;1933;-72
2023/12/20 04:13:06;;;;;;;;;;;;;;;19.77;48.50;100387.19;2102448;28;2110;-72
2023/12/20 04:14:08;;;;;;;;;;;;;;;19.76;48.61;100379.97;2098071;28;1966;-72
2023/12/20 04:15:10;;;;;;;;;;;;;;;19.76;48.59;100379.97;2097519;28;2076;-72
2023/12/20 04:16:11;;;;;;;;;;;;;;;19.75;48.51;100382.13;2100091;28;1570;-71
2023/12/20 04:17:13;;;;;;;;;;;;;;;19.75;48.59;100387.13;2099620;28;1523;-72
2023/12/20 04:18:14;;;;;;;;;;;;;;;19.76;48.63;100379.97;2100212;28;1947;-72
2023/12/20 04:19:15;;;;;;;;;;;;;;;19.76;48.77;100388.59;2096801;28;1963;-72
2023/12/20 04:20:17;;;;;;;;;;;;;;;19.77;48.73;100384.31;2098459;28;2086;-72
2023/12/20 04:21:18;;;;;;;;;;;;;;;19.79;48.55;100387.28;2102684;28;1938;-71
2023/12/20 04:22:20;;;;;;;;;;;;;;;19.76;48.78;100380.72;2100419;28;1979;-71
2023/12/20 04:23:21;;;;;;;;;;;;;;;19.80;48.73;100374.41;2101053;28;1808;-72
2023/12/20 04:24:23;;;;;;;;;;;;;;;19.79;48.81;100367.94;2096240;28;1883;-72
2023/12/20 04:25:24;;;;;;;;;;;;;;;19.78;48.79;100377.19;2101122;28;1950;-71
2023/12/20 04:26:26;;;;;;;;;;;;;;;19.80;48.77;100380.16;2100110;28;1788;-71
2023/12/20 04:27:28;;;;;;;;;;;;;;;19.82;48.83;100375.22;2099256;28;1999;-72
2023/12/20 04:28:32;;;;;;;;;;;;;;;19.82;48.60;100380.97;2098991;28;1526;-72
2023/12/20 04:29:34;;;;;;;;;;;;;;;19.82;48.82;100371.63;2099338;28;1792;-72
2023/12/20 04:30:35;;;;;;;;;;;;;;;19.83;48.86;100378.81;2097694;28;6055;-72
2023/12/20 04:31:36;;;;;;;;;;;;;;;19.83;48.81;100378.81;2097454;28;2179;-72
2023/12/20 04:32:38;;;;;;;;;;;;;;;19.84;48.92;100375.31;2100802;28;1777;-72
2023/12/20 04:33:39;;;;;;;;;;;;;;;19.85;48.89;100373.16;2098915;28;1977;-72
2023/12/20 04:34:41;;;;;;;;;;;;;;;19.85;48.78;100381.78;2098029;28;1962;-71
2023/12/20 04:35:42;;;;;;;;;;;;;;;19.84;48.82;100386.06;2100286;28;1974;-72
2023/12/20 04:36:44;;;;;;;;;;;;;;;19.84;48.83;100383.94;2100423;28;1954;-72
2023/12/20 04:37:45;;;;;;;;;;;;;;;19.84;49.01;100383.94;2102419;28;2018;-72
2023/12/20 04:38:47;;;;;;;;;;;;;;;19.83;48.89;100378.81;2097978;28;1899;-72
2023/12/20 04:39:48;;;;;;;;;;;;;;;19.84;48.92;100380.31;2099459;28;1956;-72
2023/12/20 04:40:50;;;;;;;;;;;;;;;19.83;49.00;100378.81;2103739;28;1565;-72
2023/12/20 04:41:51;;;;;;;;;;;;;;;19.84;48.85;100380.31;2102702;28;1633;-72
2023/12/20 04:42:53;;;;;;;;;;;;;;;19.83;48.89;100373.09;2100938;28;1986;-72
2023/12/20 04:43:54;;;;;;;;;;;;;;;19.83;48.97;100373.81;2100111;28;1676;-72
2023/12/20 04:44:55;;;;;;;;;;;;;;;19.83;48.92;100378.81;2100660;28;1972;-72
2023/12/20 04:45:57;;;;;;;;;;;;;;;19.83;48.97;100384.56;2103266;28;1964;-72
2023/12/20 04:46:58;;;;;;;;;;;;;;;19.84;48.81;100378.19;2100539;28;2056;-72
2023/12/20 04:48:00;;;;;;;;;;;;;;;19.86;48.99;100377.53;2100778;28;2057;-72
2023/12/20 04:49:02;;;;;;;;;;;;;;;19.85;48.93;100381.78;2102022;28;1517;-72
2023/12/20 04:50:03;;;;;;;;;;;;;;;19.87;48.86;100379.00;2101843;28;1602;-72
2023/12/20 04:51:06;;;;;;;;;;;;;;;19.87;48.79;100373.25;2097594;28;1950;-71
2023/12/20 04:52:07;;;;;;;;;;;;;;;19.86;48.88;100383.28;2097545;28;2174;-71
2023/12/20 04:53:08;;;;;;;;;;;;;;;19.86;49.03;100377.53;2100501;28;1784;-72
2023/12/20 04:54:10;;;;;;;;;;;;;;;19.87;48.87;100374.00;2097861;28;2109;-73
2023/12/20 04:55:12;;;;;;;;;;;;;;;19.89;49.07;100376.22;2099225;28;1992;-72
2023/12/20 04:56:13;;;;;;;;;;;;;;;19.89;48.99;100376.22;2099536;28;2072;-72
2023/12/20 04:57:15;;;;;;;;;;;;;;;19.90;49.12;100365.44;2099175;28;2000;-72
2023/12/20 04:58:16;;;;;;;;;;;;;;;19.90;49.01;100371.19;2097721;28;2076;-72
2023/12/20 04:59:18;;;;;;;;;;;;;;;19.90;48.90;100366.19;2100576;28;2064;-72
2023/12/20 05:00:19;;;;;;;;;;;;;;;19.89;49.05;100370.47;2101207;28;6069;-71
2023/12/20 05:01:21;;;;;;;;;;;;;;;19.89;48.90;100370.47;2100874;28;2012;-72
2023/12/20 05:02:23;;;;;;;;;;;;;;;19.88;49.06;100381.22;2098030;28;1972;-72
2023/12/20 05:03:24;;;;;;;;;;;;;;;19.89;49.05;100376.22;2099431;28;1945;-71
2023/12/20 05:04:25;;;;;;;;;;;;;;;19.89;49.02;100381.97;2101469;28;2267;-71
2023/12/20 05:05:27;;;;;;;;;;;;;;;19.88;48.88;100381.22;2100735;28;1985;-71
2023/12/20 05:06:28;;;;;;;;;;;;;;;19.89;49.03;100381.97;2100401;28;1978;-72
2023/12/20 05:07:30;;;;;;;;;;;;;;;19.88;49.00;100380.47;2100669;28;1946;-71
2023/12/20 05:08:31;;;;;;;;;;;;;;;19.87;49.12;100385.47;2103033;28;1815;-72
2023/12/20 05:09:33;;;;;;;;;;;;;;;19.89;49.08;100381.97;2099341;28;1602;-72
2023/12/20 05:10:36;;;;;;;;;;;;;;;19.88;49.01;100380.47;2099707;28;1883;-71
2023/12/20 05:11:37;;;;;;;;;;;;;;;19.89;48.99;100376.22;2102856;28;1819;-71
2023/12/20 05:12:39;;;;;;;;;;;;;;;19.90;49.07;100388.44;2101166;28;1551;-71
2023/12/20 05:13:40;;;;;;;;;;;;;;;19.90;49.10;100382.69;2099931;28;1804;-71
2023/12/20 05:14:51;;;;;;;;;;;;;;;19.90;48.99;100394.91;2099494;28;2041;-72
2023/12/20 05:15:52;;;;;;;;;;;;;;;19.91;48.96;100389.94;2101090;28;1923;-71
2023/12/20 05:16:54;;;;;;;;;;;;;;;19.91;49.01;100393.53;2099099;28;1974;-72
2023/12/20 05:17:55;;;;;;;;;;;;;;;19.91;49.11;100390.66;2097741;28;1876;-72
2023/12/20 05:18:58;;;;;;;;;;;;;;;19.91;49.23;100384.91;2098948;28;1928;-71
2023/12/20 05:19:59;;;;;;;;;;;;;;;19.91;49.28;100384.91;2100369;28;1913;-72
2023/12/20 05:21:01;;;;;;;;;;;;;;;19.92;49.20;100389.25;2101443;28;1924;-72
2023/12/20 05:22:02;;;;;;;;;;;;;;;19.92;49.31;100380.63;2101744;28;1516;-72